Terminal Aerodrome Forecast
Issued by NWS

Home | Current Version | Previous Version | Text Only | Print | Product List | Glossary On
Versions: 1 2 3 4 5 6 7 8 9 10 11 12 13 14 15 16 17 18 19 20 21 22 23 24 25
052
FTUS46 KMTR 041736
TAFSFO
TAF
KSFO 041736Z 0418/0524 VRB06KT P6SM VCSH FEW011 SCT120 BKN180
     FM042100 29014KT P6SM VCSH FEW012 SCT100
      TEMPO 0502/0504 BKN012
     FM050400 27008KT P6SM VCSH SCT012
      TEMPO 0504/0508 BKN012
     FM050800 24007KT P6SM VCSH BKN012
     FM051600 22007KT P6SM VCSH SCT014 BKN035
     FM052100 24012KT P6SM VCSH SCT018 SCT040=

USA.gov is the U.S. government's official web portal to all federal, state and local government web resources and services.